Terminal Aerodrome Forecast
Issued by NWS Portland, ME

Home | Current Version | Previous Version | Text Only | Print | Product List | Glossary On
Versions: 1 2 3 4 5 6 7 8 9 10 11 12 13 14 15 16
906
FTUS41 KGYX 240534
TAFCON
TAF
KCON 240534Z 2406/2506 VRB03KT P6SM BKN100
     FM241200 04004KT P6SM -SHRA OVC025
     FM241800 06006KT P6SM OVC025
     FM250300 00000KT 6SM BR OVC020=

USA.gov is the U.S. government's official web portal to all federal, state and local government web resources and services.